sensor_id;sensor_type;location;lat;lon;timestamp;temperature;humidity
3921;DHT22;1975;49.356;6.816;2023-04-24T00:02:01;13.20;99.90
3921;DHT22;1975;49.356;6.816;2023-04-24T00:04:26;13.20;99.90
3921;DHT22;1975;49.356;6.816;2023-04-24T00:06:52;13.10;99.90
3921;DHT22;1975;49.356;6.816;2023-04-24T00:09:22;13.10;99.90
3921;DHT22;1975;49.356;6.816;2023-04-24T00:11:47;13.10;99.90
3921;DHT22;1975;49.356;6.816;2023-04-24T00:14:13;13.10;99.90
3921;DHT22;1975;49.356;6.816;2023-04-24T00:16:38;13.10;99.90
3921;DHT22;1975;49.356;6.816;2023-04-24T00:19:04;13.10;99.90
3921;DHT22;1975;49.356;6.816;2023-04-24T00:21:31;13.10;99.90
3921;DHT22;1975;49.356;6.816;2023-04-24T00:23:57;13.10;99.90
3921;DHT22;1975;49.356;6.816;2023-04-24T00:26:23;13.10;99.90
3921;DHT22;1975;49.356;6.816;2023-04-24T00:28:48;13.10;99.90
3921;DHT22;1975;49.356;6.816;2023-04-24T00:31:14;13.00;99.90
3921;DHT22;1975;49.356;6.816;2023-04-24T00:33:39;13.10;99.90
3921;DHT22;1975;49.356;6.816;2023-04-24T00:36:05;13.00;99.90
3921;DHT22;1975;49.356;6.816;2023-04-24T00:38:31;13.00;99.90
3921;DHT22;1975;49.356;6.816;2023-04-24T00:40:56;13.00;99.90
3921;DHT22;1975;49.356;6.816;2023-04-24T00:43:22;13.00;99.90
3921;DHT22;1975;49.356;6.816;2023-04-24T00:45:47;13.00;99.90
3921;DHT22;1975;49.356;6.816;2023-04-24T00:48:13;13.00;99.90
3921;DHT22;1975;49.356;6.816;2023-04-24T00:50:38;13.00;99.90
3921;DHT22;1975;49.356;6.816;2023-04-24T00:53:04;13.00;99.90
3921;DHT22;1975;49.356;6.816;2023-04-24T00:55:30;12.90;99.90
3921;DHT22;1975;49.356;6.816;2023-04-24T00:57:55;12.90;99.90
3921;DHT22;1975;49.356;6.816;2023-04-24T01:00:21;12.90;99.90
3921;DHT22;1975;49.356;6.816;2023-04-24T01:02:46;12.90;99.90
3921;DHT22;1975;49.356;6.816;2023-04-24T01:05:12;12.90;99.90
3921;DHT22;1975;49.356;6.816;2023-04-24T01:07:39;12.90;99.90
3921;DHT22;1975;49.356;6.816;2023-04-24T01:10:07;12.90;99.90
3921;DHT22;1975;49.356;6.816;2023-04-24T01:12:33;12.90;99.90
3921;DHT22;1975;49.356;6.816;2023-04-24T01:14:58;12.90;99.90
3921;DHT22;1975;49.356;6.816;2023-04-24T01:17:24;12.90;99.90
3921;DHT22;1975;49.356;6.816;2023-04-24T01:19:49;12.90;99.90
3921;DHT22;1975;49.356;6.816;2023-04-24T01:22:18;12.80;99.90
3921;DHT22;1975;49.356;6.816;2023-04-24T01:24:44;12.80;99.90
3921;DHT22;1975;49.356;6.816;2023-04-24T01:27:10;12.80;99.90
3921;DHT22;1975;49.356;6.816;2023-04-24T01:29:35;12.80;99.90
3921;DHT22;1975;49.356;6.816;2023-04-24T01:32:02;12.80;99.90
3921;DHT22;1975;49.356;6.816;2023-04-24T01:34:27;12.80;99.90
3921;DHT22;1975;49.356;6.816;2023-04-24T01:36:53;12.80;99.90
3921;DHT22;1975;49.356;6.816;2023-04-24T01:39:18;12.80;99.90
3921;DHT22;1975;49.356;6.816;2023-04-24T01:41:45;12.80;99.90
3921;DHT22;1975;49.356;6.816;2023-04-24T01:44:11;12.80;99.90
3921;DHT22;1975;49.356;6.816;2023-04-24T01:46:36;12.70;99.90
3921;DHT22;1975;49.356;6.816;2023-04-24T01:49:02;12.80;99.90
3921;DHT22;1975;49.356;6.816;2023-04-24T01:51:28;12.80;99.90
3921;DHT22;1975;49.356;6.816;2023-04-24T01:53:53;12.80;99.90
3921;DHT22;1975;49.356;6.816;2023-04-24T01:56:22;12.70;99.90
3921;DHT22;1975;49.356;6.816;2023-04-24T01:58:48;12.70;99.90
3921;DHT22;1975;49.356;6.816;2023-04-24T02:01:17;12.70;99.90
3921;DHT22;1975;49.356;6.816;2023-04-24T02:03:43;12.70;99.90
3921;DHT22;1975;49.356;6.816;2023-04-24T02:06:09;12.70;99.90
3921;DHT22;1975;49.356;6.816;2023-04-24T02:08:34;12.70;99.90
3921;DHT22;1975;49.356;6.816;2023-04-24T02:10:59;12.70;99.90
3921;DHT22;1975;49.356;6.816;2023-04-24T02:13:27;12.70;99.90
3921;DHT22;1975;49.356;6.816;2023-04-24T02:15:52;12.70;99.90
3921;DHT22;1975;49.356;6.816;2023-04-24T02:18:17;12.70;99.90
3921;DHT22;1975;49.356;6.816;2023-04-24T02:20:43;12.70;99.90
3921;DHT22;1975;49.356;6.816;2023-04-24T02:23:08;12.60;99.90
3921;DHT22;1975;49.356;6.816;2023-04-24T02:25:34;12.60;99.90
3921;DHT22;1975;49.356;6.816;2023-04-24T02:27:59;12.60;99.90
3921;DHT22;1975;49.356;6.816;2023-04-24T02:30:25;12.60;99.90
3921;DHT22;1975;49.356;6.816;2023-04-24T02:32:50;12.60;99.90
3921;DHT22;1975;49.356;6.816;2023-04-24T02:35:16;12.60;99.90
3921;DHT22;1975;49.356;6.816;2023-04-24T02:37:42;12.60;99.90
3921;DHT22;1975;49.356;6.816;2023-04-24T02:40:08;12.60;99.90
3921;DHT22;1975;49.356;6.816;2023-04-24T02:42:33;12.50;99.90
3921;DHT22;1975;49.356;6.816;2023-04-24T02:44:59;12.50;99.90
3921;DHT22;1975;49.356;6.816;2023-04-24T02:47:25;12.50;99.90
3921;DHT22;1975;49.356;6.816;2023-04-24T02:49:50;12.60;99.90
3921;DHT22;1975;49.356;6.816;2023-04-24T02:52:16;12.50;99.90
3921;DHT22;1975;49.356;6.816;2023-04-24T02:54:42;12.50;99.90
3921;DHT22;1975;49.356;6.816;2023-04-24T02:57:07;12.50;99.90
3921;DHT22;1975;49.356;6.816;2023-04-24T02:59:33;12.50;99.90
3921;DHT22;1975;49.356;6.816;2023-04-24T03:01:59;12.50;99.90
3921;DHT22;1975;49.356;6.816;2023-04-24T03:04:24;12.50;99.90
3921;DHT22;1975;49.356;6.816;2023-04-24T03:06:50;12.50;99.90
3921;DHT22;1975;49.356;6.816;2023-04-24T03:09:18;12.50;99.90
3921;DHT22;1975;49.356;6.816;2023-04-24T03:11:43;12.50;99.90
3921;DHT22;1975;49.356;6.816;2023-04-24T03:14:09;12.40;99.90
3921;DHT22;1975;49.356;6.816;2023-04-24T03:16:34;12.40;99.90
3921;DHT22;1975;49.356;6.816;2023-04-24T03:19:00;12.40;99.90
3921;DHT22;1975;49.356;6.816;2023-04-24T03:21:25;12.40;99.90
3921;DHT22;1975;49.356;6.816;2023-04-24T03:23:51;12.40;99.90
3921;DHT22;1975;49.356;6.816;2023-04-24T03:26:17;12.40;99.90
3921;DHT22;1975;49.356;6.816;2023-04-24T03:28:42;12.40;99.90
3921;DHT22;1975;49.356;6.816;2023-04-24T03:31:08;12.40;99.90
3921;DHT22;1975;49.356;6.816;2023-04-24T03:33:33;12.40;99.90
3921;DHT22;1975;49.356;6.816;2023-04-24T03:35:59;12.30;99.90
3921;DHT22;1975;49.356;6.816;2023-04-24T03:38:24;12.30;99.90
3921;DHT22;1975;49.356;6.816;2023-04-24T03:40:50;12.30;99.90
3921;DHT22;1975;49.356;6.816;2023-04-24T03:43:15;12.30;99.90
3921;DHT22;1975;49.356;6.816;2023-04-24T03:45:40;12.30;99.90
3921;DHT22;1975;49.356;6.816;2023-04-24T03:48:06;12.30;99.90
3921;DHT22;1975;49.356;6.816;2023-04-24T03:50:32;12.30;99.90
3921;DHT22;1975;49.356;6.816;2023-04-24T03:52:58;12.30;99.90
3921;DHT22;1975;49.356;6.816;2023-04-24T03:55:23;12.30;99.90
3921;DHT22;1975;49.356;6.816;2023-04-24T03:57:49;12.30;99.90
3921;DHT22;1975;49.356;6.816;2023-04-24T04:00:15;12.30;99.90
3921;DHT22;1975;49.356;6.816;2023-04-24T04:02:41;12.30;99.90
3921;DHT22;1975;49.356;6.816;2023-04-24T04:05:06;12.30;99.90
3921;DHT22;1975;49.356;6.816;2023-04-24T04:07:33;12.30;99.90
3921;DHT22;1975;49.356;6.816;2023-04-24T04:09:58;12.30;99.90
3921;DHT22;1975;49.356;6.816;2023-04-24T04:12:24;12.20;99.90
3921;DHT22;1975;49.356;6.816;2023-04-24T04:14:49;12.20;99.90
3921;DHT22;1975;49.356;6.816;2023-04-24T04:17:15;12.20;99.90
3921;DHT22;1975;49.356;6.816;2023-04-24T04:19:41;12.20;99.90
3921;DHT22;1975;49.356;6.816;2023-04-24T04:22:06;12.20;99.90
3921;DHT22;1975;49.356;6.816;2023-04-24T04:24:33;12.20;99.90
3921;DHT22;1975;49.356;6.816;2023-04-24T04:26:59;12.20;99.90
3921;DHT22;1975;49.356;6.816;2023-04-24T04:29:24;12.10;99.90
3921;DHT22;1975;49.356;6.816;2023-04-24T04:31:51;12.20;99.90
3921;DHT22;1975;49.356;6.816;2023-04-24T04:34:16;12.10;99.90
3921;DHT22;1975;49.356;6.816;2023-04-24T04:36:42;12.20;99.90
3921;DHT22;1975;49.356;6.816;2023-04-24T04:39:08;12.20;99.90
3921;DHT22;1975;49.356;6.816;2023-04-24T04:41:33;12.10;99.90
3921;DHT22;1975;49.356;6.816;2023-04-24T04:44:02;12.10;99.90
3921;DHT22;1975;49.356;6.816;2023-04-24T04:46:30;12.10;99.90
3921;DHT22;1975;49.356;6.816;2023-04-24T04:48:58;12.10;99.90
3921;DHT22;1975;49.356;6.816;2023-04-24T04:51:24;12.10;99.90
3921;DHT22;1975;49.356;6.816;2023-04-24T04:53:50;12.10;99.90
3921;DHT22;1975;49.356;6.816;2023-04-24T04:56:15;12.10;99.90
3921;DHT22;1975;49.356;6.816;2023-04-24T04:58:41;12.00;99.90
3921;DHT22;1975;49.356;6.816;2023-04-24T05:01:06;12.00;99.90
3921;DHT22;1975;49.356;6.816;2023-04-24T05:03:32;12.00;99.90
3921;DHT22;1975;49.356;6.816;2023-04-24T05:05:57;12.00;99.90
3921;DHT22;1975;49.356;6.816;2023-04-24T05:08:23;12.00;99.90
3921;DHT22;1975;49.356;6.816;2023-04-24T05:10:48;12.00;99.90
3921;DHT22;1975;49.356;6.816;2023-04-24T05:13:14;12.00;99.90
3921;DHT22;1975;49.356;6.816;2023-04-24T05:15:39;12.00;99.90
3921;DHT22;1975;49.356;6.816;2023-04-24T05:18:05;12.00;99.90
3921;DHT22;1975;49.356;6.816;2023-04-24T05:20:30;12.00;99.90
3921;DHT22;1975;49.356;6.816;2023-04-24T05:22:56;11.90;99.90
3921;DHT22;1975;49.356;6.816;2023-04-24T05:25:21;11.90;99.90
3921;DHT22;1975;49.356;6.816;2023-04-24T05:27:46;12.00;99.90
3921;DHT22;1975;49.356;6.816;2023-04-24T05:30:12;11.90;99.90
3921;DHT22;1975;49.356;6.816;2023-04-24T05:32:38;11.90;99.90
3921;DHT22;1975;49.356;6.816;2023-04-24T05:35:03;11.90;99.90
3921;DHT22;1975;49.356;6.816;2023-04-24T05:37:29;11.90;99.90
3921;DHT22;1975;49.356;6.816;2023-04-24T05:39:54;11.90;99.90
3921;DHT22;1975;49.356;6.816;2023-04-24T05:42:20;11.90;99.90
3921;DHT22;1975;49.356;6.816;2023-04-24T05:44:45;11.90;99.90
3921;DHT22;1975;49.356;6.816;2023-04-24T05:47:11;11.90;99.90
3921;DHT22;1975;49.356;6.816;2023-04-24T05:49:36;11.90;99.90
3921;DHT22;1975;49.356;6.816;2023-04-24T05:52:01;11.90;99.90
3921;DHT22;1975;49.356;6.816;2023-04-24T05:54:29;11.80;99.90
3921;DHT22;1975;49.356;6.816;2023-04-24T05:56:54;11.80;99.90
3921;DHT22;1975;49.356;6.816;2023-04-24T05:59:20;11.80;99.90
3921;DHT22;1975;49.356;6.816;2023-04-24T06:01:46;11.80;99.90
3921;DHT22;1975;49.356;6.816;2023-04-24T06:04:12;11.80;99.90
3921;DHT22;1975;49.356;6.816;2023-04-24T06:06:38;11.80;99.90
3921;DHT22;1975;49.356;6.816;2023-04-24T06:09:04;11.80;99.90
3921;DHT22;1975;49.356;6.816;2023-04-24T06:11:30;11.80;99.90
3921;DHT22;1975;49.356;6.816;2023-04-24T06:13:55;11.80;99.90
3921;DHT22;1975;49.356;6.816;2023-04-24T06:16:21;11.80;99.90
3921;DHT22;1975;49.356;6.816;2023-04-24T06:18:46;11.80;99.90
3921;DHT22;1975;49.356;6.816;2023-04-24T06:21:12;11.80;99.90
3921;DHT22;1975;49.356;6.816;2023-04-24T06:23:38;11.80;99.90
3921;DHT22;1975;49.356;6.816;2023-04-24T06:26:03;11.80;99.90
3921;DHT22;1975;49.356;6.816;2023-04-24T06:28:29;11.80;99.90
3921;DHT22;1975;49.356;6.816;2023-04-24T06:30:54;11.80;99.90
3921;DHT22;1975;49.356;6.816;2023-04-24T06:33:21;11.80;99.90
3921;DHT22;1975;49.356;6.816;2023-04-24T06:35:46;11.80;99.90
3921;DHT22;1975;49.356;6.816;2023-04-24T06:38:12;11.80;99.90
3921;DHT22;1975;49.356;6.816;2023-04-24T06:40:37;11.80;99.90
3921;DHT22;1975;49.356;6.816;2023-04-24T06:43:02;11.70;99.90
3921;DHT22;1975;49.356;6.816;2023-04-24T06:45:28;11.70;99.90
3921;DHT22;1975;49.356;6.816;2023-04-24T06:47:54;11.80;99.90
3921;DHT22;1975;49.356;6.816;2023-04-24T06:50:20;11.80;99.90
3921;DHT22;1975;49.356;6.816;2023-04-24T06:52:45;11.70;99.90
3921;DHT22;1975;49.356;6.816;2023-04-24T06:55:11;11.70;99.90
3921;DHT22;1975;49.356;6.816;2023-04-24T06:57:36;11.70;99.90
3921;DHT22;1975;49.356;6.816;2023-04-24T07:00:02;11.70;99.90
3921;DHT22;1975;49.356;6.816;2023-04-24T07:02:28;11.70;99.90
3921;DHT22;1975;49.356;6.816;2023-04-24T07:04:54;11.70;99.90
3921;DHT22;1975;49.356;6.816;2023-04-24T07:07:19;11.70;99.90
3921;DHT22;1975;49.356;6.816;2023-04-24T07:09:45;11.70;99.90
3921;DHT22;1975;49.356;6.816;2023-04-24T07:12:11;11.70;99.90
3921;DHT22;1975;49.356;6.816;2023-04-24T07:14:37;11.70;99.90
3921;DHT22;1975;49.356;6.816;2023-04-24T07:17:03;11.70;99.90
3921;DHT22;1975;49.356;6.816;2023-04-24T07:19:29;11.70;99.90
3921;DHT22;1975;49.356;6.816;2023-04-24T07:21:54;11.70;99.90
3921;DHT22;1975;49.356;6.816;2023-04-24T07:24:20;11.70;99.90
3921;DHT22;1975;49.356;6.816;2023-04-24T07:26:46;11.70;99.90
3921;DHT22;1975;49.356;6.816;2023-04-24T07:29:12;11.60;99.90
3921;DHT22;1975;49.356;6.816;2023-04-24T07:31:37;11.60;99.90
3921;DHT22;1975;49.356;6.816;2023-04-24T07:34:03;11.70;99.90
3921;DHT22;1975;49.356;6.816;2023-04-24T07:36:28;11.60;99.90
3921;DHT22;1975;49.356;6.816;2023-04-24T07:38:54;11.60;99.90
3921;DHT22;1975;49.356;6.816;2023-04-24T07:41:20;11.60;99.90
3921;DHT22;1975;49.356;6.816;2023-04-24T07:43:46;11.60;99.90
3921;DHT22;1975;49.356;6.816;2023-04-24T07:46:12;11.20;99.90
3921;DHT22;1975;49.356;6.816;2023-04-24T07:48:37;10.90;99.90
3921;DHT22;1975;49.356;6.816;2023-04-24T07:51:03;11.00;99.90
3921;DHT22;1975;49.356;6.816;2023-04-24T07:53:28;11.20;99.90
3921;DHT22;1975;49.356;6.816;2023-04-24T07:55:54;11.30;99.90
3921;DHT22;1975;49.356;6.816;2023-04-24T07:58:20;11.30;99.90
3921;DHT22;1975;49.356;6.816;2023-04-24T08:00:46;11.40;99.90
3921;DHT22;1975;49.356;6.816;2023-04-24T08:03:12;11.40;99.90
3921;DHT22;1975;49.356;6.816;2023-04-24T08:05:37;11.40;99.90
3921;DHT22;1975;49.356;6.816;2023-04-24T08:08:03;11.40;99.90
3921;DHT22;1975;49.356;6.816;2023-04-24T08:10:28;11.40;99.90
3921;DHT22;1975;49.356;6.816;2023-04-24T08:12:54;11.40;99.90
3921;DHT22;1975;49.356;6.816;2023-04-24T08:15:20;11.40;99.90
3921;DHT22;1975;49.356;6.816;2023-04-24T08:17:46;11.40;99.90
3921;DHT22;1975;49.356;6.816;2023-04-24T08:20:12;11.40;99.90
3921;DHT22;1975;49.356;6.816;2023-04-24T08:22:41;11.40;99.90
3921;DHT22;1975;49.356;6.816;2023-04-24T08:25:06;11.40;99.90
3921;DHT22;1975;49.356;6.816;2023-04-24T08:27:32;11.40;99.90
3921;DHT22;1975;49.356;6.816;2023-04-24T08:29:57;11.40;99.90
3921;DHT22;1975;49.356;6.816;2023-04-24T08:32:25;11.40;99.90
3921;DHT22;1975;49.356;6.816;2023-04-24T08:34:53;11.40;99.90
3921;DHT22;1975;49.356;6.816;2023-04-24T08:37:18;11.40;99.90
3921;DHT22;1975;49.356;6.816;2023-04-24T08:39:44;11.40;99.90
3921;DHT22;1975;49.356;6.816;2023-04-24T08:42:09;11.40;99.90
3921;DHT22;1975;49.356;6.816;2023-04-24T08:44:36;11.40;99.90
3921;DHT22;1975;49.356;6.816;2023-04-24T08:47:02;11.30;99.90
3921;DHT22;1975;49.356;6.816;2023-04-24T08:49:28;11.30;99.90
3921;DHT22;1975;49.356;6.816;2023-04-24T08:51:53;11.30;99.90
3921;DHT22;1975;49.356;6.816;2023-04-24T08:54:19;11.30;99.90
3921;DHT22;1975;49.356;6.816;2023-04-24T08:56:45;11.30;99.90
3921;DHT22;1975;49.356;6.816;2023-04-24T08:59:12;11.30;99.90
3921;DHT22;1975;49.356;6.816;2023-04-24T09:01:38;11.40;99.90
3921;DHT22;1975;49.356;6.816;2023-04-24T09:04:05;11.30;99.90
3921;DHT22;1975;49.356;6.816;2023-04-24T09:06:31;11.40;99.90
3921;DHT22;1975;49.356;6.816;2023-04-24T09:08:59;11.40;99.90
3921;DHT22;1975;49.356;6.816;2023-04-24T09:11:25;11.40;99.90
3921;DHT22;1975;49.356;6.816;2023-04-24T09:13:52;11.40;99.90
3921;DHT22;1975;49.356;6.816;2023-04-24T09:16:18;11.30;99.90
3921;DHT22;1975;49.356;6.816;2023-04-24T09:18:44;11.40;99.90
3921;DHT22;1975;49.356;6.816;2023-04-24T09:21:10;11.40;99.90
3921;DHT22;1975;49.356;6.816;2023-04-24T09:23:35;11.40;99.90
3921;DHT22;1975;49.356;6.816;2023-04-24T09:26:01;11.40;99.90
3921;DHT22;1975;49.356;6.816;2023-04-24T09:28:32;11.40;99.90
3921;DHT22;1975;49.356;6.816;2023-04-24T09:31:05;11.40;99.90
3921;DHT22;1975;49.356;6.816;2023-04-24T09:33:30;11.40;99.90
3921;DHT22;1975;49.356;6.816;2023-04-24T09:35:56;11.40;99.90
3921;DHT22;1975;49.356;6.816;2023-04-24T09:38:31;11.40;99.90
3921;DHT22;1975;49.356;6.816;2023-04-24T09:41:00;11.40;99.90
3921;DHT22;1975;49.356;6.816;2023-04-24T09:43:28;11.40;99.90
3921;DHT22;1975;49.356;6.816;2023-04-24T09:45:55;11.40;99.90
3921;DHT22;1975;49.356;6.816;2023-04-24T09:48:29;11.40;99.90
3921;DHT22;1975;49.356;6.816;2023-04-24T09:50:54;11.40;99.90
3921;DHT22;1975;49.356;6.816;2023-04-24T09:53:23;11.40;99.90
3921;DHT22;1975;49.356;6.816;2023-04-24T09:55:49;11.40;99.90
3921;DHT22;1975;49.356;6.816;2023-04-24T09:58:15;11.40;99.90
3921;DHT22;1975;49.356;6.816;2023-04-24T10:00:41;11.40;99.90
3921;DHT22;1975;49.356;6.816;2023-04-24T10:03:06;11.40;99.90
3921;DHT22;1975;49.356;6.816;2023-04-24T10:05:32;11.40;99.90
3921;DHT22;1975;49.356;6.816;2023-04-24T10:08:10;11.40;99.90
3921;DHT22;1975;49.356;6.816;2023-04-24T10:10:38;11.40;99.90
3921;DHT22;1975;49.356;6.816;2023-04-24T10:13:04;11.40;99.90
3921;DHT22;1975;49.356;6.816;2023-04-24T10:15:29;11.40;99.90
3921;DHT22;1975;49.356;6.816;2023-04-24T10:17:55;11.40;99.90
3921;DHT22;1975;49.356;6.816;2023-04-24T10:20:23;11.40;99.90
3921;DHT22;1975;49.356;6.816;2023-04-24T10:22:49;11.40;99.90
3921;DHT22;1975;49.356;6.816;2023-04-24T10:25:22;11.40;99.90
3921;DHT22;1975;49.356;6.816;2023-04-24T10:27:48;11.40;99.90
3921;DHT22;1975;49.356;6.816;2023-04-24T10:30:14;11.40;99.90
3921;DHT22;1975;49.356;6.816;2023-04-24T10:32:39;11.40;99.90
3921;DHT22;1975;49.356;6.816;2023-04-24T10:35:06;11.50;99.90
3921;DHT22;1975;49.356;6.816;2023-04-24T10:37:34;11.40;99.90
3921;DHT22;1975;49.356;6.816;2023-04-24T10:40:01;11.50;99.90
3921;DHT22;1975;49.356;6.816;2023-04-24T10:42:27;11.40;99.90
3921;DHT22;1975;49.356;6.816;2023-04-24T10:44:52;11.50;99.90
3921;DHT22;1975;49.356;6.816;2023-04-24T10:47:19;11.50;99.90
3921;DHT22;1975;49.356;6.816;2023-04-24T10:49:45;11.10;99.90
3921;DHT22;1975;49.356;6.816;2023-04-24T10:52:10;10.90;99.90
3921;DHT22;1975;49.356;6.816;2023-04-24T10:59:43;10.80;99.90
3921;DHT22;1975;49.356;6.816;2023-04-24T11:02:09;10.80;99.90
3921;DHT22;1975;49.356;6.816;2023-04-24T11:04:35;10.70;99.90
3921;DHT22;1975;49.356;6.816;2023-04-24T11:07:00;10.60;99.90
3921;DHT22;1975;49.356;6.816;2023-04-24T11:09:27;10.60;99.90
3921;DHT22;1975;49.356;6.816;2023-04-24T11:12:03;10.70;99.90
3921;DHT22;1975;49.356;6.816;2023-04-24T11:14:59;10.80;99.90
3921;DHT22;1975;49.356;6.816;2023-04-24T11:17:36;10.70;99.90
3921;DHT22;1975;49.356;6.816;2023-04-24T11:20:07;10.70;99.90
3921;DHT22;1975;49.356;6.816;2023-04-24T11:22:33;10.70;99.90
3921;DHT22;1975;49.356;6.816;2023-04-24T11:25:00;10.60;99.90
3921;DHT22;1975;49.356;6.816;2023-04-24T11:27:32;10.70;99.90
3921;DHT22;1975;49.356;6.816;2023-04-24T11:30:03;10.80;99.90
3921;DHT22;1975;49.356;6.816;2023-04-24T11:37:21;10.80;99.90
3921;DHT22;1975;49.356;6.816;2023-04-24T11:39:46;10.80;99.90
3921;DHT22;1975;49.356;6.816;2023-04-24T11:42:14;10.80;99.90
3921;DHT22;1975;49.356;6.816;2023-04-24T11:44:40;10.80;99.90
3921;DHT22;1975;49.356;6.816;2023-04-24T11:47:06;10.80;99.90
3921;DHT22;1975;49.356;6.816;2023-04-24T11:49:37;10.80;99.90
3921;DHT22;1975;49.356;6.816;2023-04-24T11:52:03;10.80;99.90
3921;DHT22;1975;49.356;6.816;2023-04-24T11:54:29;10.70;99.90
3921;DHT22;1975;49.356;6.816;2023-04-24T11:56:55;10.70;99.90
3921;DHT22;1975;49.356;6.816;2023-04-24T11:59:21;10.70;99.90
3921;DHT22;1975;49.356;6.816;2023-04-24T12:01:47;10.70;99.90
3921;DHT22;1975;49.356;6.816;2023-04-24T12:04:13;10.70;99.90
3921;DHT22;1975;49.356;6.816;2023-04-24T12:06:38;10.60;99.90
3921;DHT22;1975;49.356;6.816;2023-04-24T12:09:04;10.60;99.90
3921;DHT22;1975;49.356;6.816;2023-04-24T12:11:29;10.80;99.90
3921;DHT22;1975;49.356;6.816;2023-04-24T12:13:55;10.90;99.90
3921;DHT22;1975;49.356;6.816;2023-04-24T12:16:20;10.70;99.90
3921;DHT22;1975;49.356;6.816;2023-04-24T12:18:46;10.40;99.90
3921;DHT22;1975;49.356;6.816;2023-04-24T12:21:15;10.20;99.90
3921;DHT22;1975;49.356;6.816;2023-04-24T12:23:42;10.20;99.90
3921;DHT22;1975;49.356;6.816;2023-04-24T12:26:07;10.30;99.90
3921;DHT22;1975;49.356;6.816;2023-04-24T12:28:37;10.30;99.90
3921;DHT22;1975;49.356;6.816;2023-04-24T12:31:02;10.30;99.90
3921;DHT22;1975;49.356;6.816;2023-04-24T12:33:28;10.40;99.90
3921;DHT22;1975;49.356;6.816;2023-04-24T12:35:57;10.40;99.90
3921;DHT22;1975;49.356;6.816;2023-04-24T12:38:23;10.50;99.90
3921;DHT22;1975;49.356;6.816;2023-04-24T12:41:01;10.70;99.90
3921;DHT22;1975;49.356;6.816;2023-04-24T12:43:26;10.70;99.90
3921;DHT22;1975;49.356;6.816;2023-04-24T12:45:52;10.90;99.90
3921;DHT22;1975;49.356;6.816;2023-04-24T12:48:17;11.00;99.90
3921;DHT22;1975;49.356;6.816;2023-04-24T12:50:43;11.10;99.90
3921;DHT22;1975;49.356;6.816;2023-04-24T12:53:09;11.10;99.90
3921;DHT22;1975;49.356;6.816;2023-04-24T12:55:35;11.10;99.90
3921;DHT22;1975;49.356;6.816;2023-04-24T12:58:01;11.10;99.90
3921;DHT22;1975;49.356;6.816;2023-04-24T13:00:28;11.10;99.90
3921;DHT22;1975;49.356;6.816;2023-04-24T13:02:53;11.10;99.90
3921;DHT22;1975;49.356;6.816;2023-04-24T13:05:19;11.10;99.90
3921;DHT22;1975;49.356;6.816;2023-04-24T13:07:45;11.10;99.90
3921;DHT22;1975;49.356;6.816;2023-04-24T13:10:10;11.10;99.90
3921;DHT22;1975;49.356;6.816;2023-04-24T13:12:36;11.20;99.90
3921;DHT22;1975;49.356;6.816;2023-04-24T13:15:02;11.20;99.90
3921;DHT22;1975;49.356;6.816;2023-04-24T13:17:28;11.10;99.90
3921;DHT22;1975;49.356;6.816;2023-04-24T13:19:54;11.20;99.90
3921;DHT22;1975;49.356;6.816;2023-04-24T13:22:20;11.30;99.90
3921;DHT22;1975;49.356;6.816;2023-04-24T13:24:45;11.30;99.90
3921;DHT22;1975;49.356;6.816;2023-04-24T13:27:14;11.30;99.90
3921;DHT22;1975;49.356;6.816;2023-04-24T13:29:39;11.40;99.90
3921;DHT22;1975;49.356;6.816;2023-04-24T13:32:05;11.40;99.90
3921;DHT22;1975;49.356;6.816;2023-04-24T13:34:31;11.40;99.90
3921;DHT22;1975;49.356;6.816;2023-04-24T13:36:57;11.50;99.90
3921;DHT22;1975;49.356;6.816;2023-04-24T13:39:23;11.50;99.90
3921;DHT22;1975;49.356;6.816;2023-04-24T13:41:49;11.50;99.90
3921;DHT22;1975;49.356;6.816;2023-04-24T13:44:15;11.50;99.90
3921;DHT22;1975;49.356;6.816;2023-04-24T13:46:41;11.50;99.90
3921;DHT22;1975;49.356;6.816;2023-04-24T13:49:06;11.50;99.90
3921;DHT22;1975;49.356;6.816;2023-04-24T13:51:32;11.60;99.90
3921;DHT22;1975;49.356;6.816;2023-04-24T13:53:57;11.60;99.90
3921;DHT22;1975;49.356;6.816;2023-04-24T13:56:23;11.60;99.90
3921;DHT22;1975;49.356;6.816;2023-04-24T13:58:48;11.50;99.90
3921;DHT22;1975;49.356;6.816;2023-04-24T14:01:14;11.60;99.90
3921;DHT22;1975;49.356;6.816;2023-04-24T14:03:41;11.60;99.90
3921;DHT22;1975;49.356;6.816;2023-04-24T14:06:06;11.60;99.90
3921;DHT22;1975;49.356;6.816;2023-04-24T14:08:32;11.60;99.90
3921;DHT22;1975;49.356;6.816;2023-04-24T14:10:57;11.60;99.90
3921;DHT22;1975;49.356;6.816;2023-04-24T14:13:23;11.60;99.90
3921;DHT22;1975;49.356;6.816;2023-04-24T14:15:48;11.60;99.90
3921;DHT22;1975;49.356;6.816;2023-04-24T14:18:14;11.60;99.90
3921;DHT22;1975;49.356;6.816;2023-04-24T14:20:39;11.60;99.90
3921;DHT22;1975;49.356;6.816;2023-04-24T14:23:05;11.60;99.90
3921;DHT22;1975;49.356;6.816;2023-04-24T14:25:30;11.60;99.90
3921;DHT22;1975;49.356;6.816;2023-04-24T14:27:56;11.60;99.90
3921;DHT22;1975;49.356;6.816;2023-04-24T14:30:21;11.60;99.90
3921;DHT22;1975;49.356;6.816;2023-04-24T14:32:47;11.60;99.90
3921;DHT22;1975;49.356;6.816;2023-04-24T14:35:13;11.60;99.90
3921;DHT22;1975;49.356;6.816;2023-04-24T14:37:39;11.60;99.90
3921;DHT22;1975;49.356;6.816;2023-04-24T14:40:06;11.60;99.90
3921;DHT22;1975;49.356;6.816;2023-04-24T14:42:33;11.60;99.90
3921;DHT22;1975;49.356;6.816;2023-04-24T14:44:59;11.60;99.90
3921;DHT22;1975;49.356;6.816;2023-04-24T14:47:24;11.60;99.90
3921;DHT22;1975;49.356;6.816;2023-04-24T14:49:50;11.60;99.90
3921;DHT22;1975;49.356;6.816;2023-04-24T14:52:15;11.60;99.90
3921;DHT22;1975;49.356;6.816;2023-04-24T14:54:41;11.60;99.90
3921;DHT22;1975;49.356;6.816;2023-04-24T14:57:07;11.60;99.90
3921;DHT22;1975;49.356;6.816;2023-04-24T14:59:32;11.60;99.90
3921;DHT22;1975;49.356;6.816;2023-04-24T15:01:58;11.70;99.90
3921;DHT22;1975;49.356;6.816;2023-04-24T15:04:23;11.70;99.90
3921;DHT22;1975;49.356;6.816;2023-04-24T15:06:51;11.70;99.90
3921;DHT22;1975;49.356;6.816;2023-04-24T15:09:16;11.70;99.90
3921;DHT22;1975;49.356;6.816;2023-04-24T15:11:42;11.70;99.90
3921;DHT22;1975;49.356;6.816;2023-04-24T15:14:07;11.70;99.90
3921;DHT22;1975;49.356;6.816;2023-04-24T15:16:32;11.70;99.90
3921;DHT22;1975;49.356;6.816;2023-04-24T15:18:58;11.70;99.90
3921;DHT22;1975;49.356;6.816;2023-04-24T15:21:23;11.70;99.90
3921;DHT22;1975;49.356;6.816;2023-04-24T15:23:49;11.70;99.90
3921;DHT22;1975;49.356;6.816;2023-04-24T15:26:15;11.70;99.90
3921;DHT22;1975;49.356;6.816;2023-04-24T15:28:40;11.70;99.90
3921;DHT22;1975;49.356;6.816;2023-04-24T15:31:06;11.70;99.90
3921;DHT22;1975;49.356;6.816;2023-04-24T15:33:31;11.70;99.90
3921;DHT22;1975;49.356;6.816;2023-04-24T15:35:56;11.70;99.90
3921;DHT22;1975;49.356;6.816;2023-04-24T15:38:22;11.70;99.90
3921;DHT22;1975;49.356;6.816;2023-04-24T15:40:47;11.70;99.90
3921;DHT22;1975;49.356;6.816;2023-04-24T15:43:13;11.70;99.90
3921;DHT22;1975;49.356;6.816;2023-04-24T15:45:39;11.70;99.90
3921;DHT22;1975;49.356;6.816;2023-04-24T15:48:04;11.70;99.90
3921;DHT22;1975;49.356;6.816;2023-04-24T15:50:30;11.70;99.90
3921;DHT22;1975;49.356;6.816;2023-04-24T15:52:55;11.70;99.90
3921;DHT22;1975;49.356;6.816;2023-04-24T15:55:21;11.70;99.90
3921;DHT22;1975;49.356;6.816;2023-04-24T15:57:46;11.70;99.90
3921;DHT22;1975;49.356;6.816;2023-04-24T16:00:12;11.70;99.90
3921;DHT22;1975;49.356;6.816;2023-04-24T16:02:38;11.80;99.90
3921;DHT22;1975;49.356;6.816;2023-04-24T16:05:03;11.80;99.90